createdAt,value
2023-03-16T00:00:13.767Z,4.90
2023-03-16T00:02:41.579Z,4.05
2023-03-16T00:05:12.924Z,4.93
2023-03-16T00:07:40.304Z,4.18
2023-03-16T00:10:07.153Z,4.53
2023-03-16T00:12:34.968Z,4.43
2023-03-16T00:15:02.100Z,4.72
2023-03-16T00:17:28.848Z,4.25
2023-03-16T00:19:57.245Z,4.38
2023-03-16T00:22:29.010Z,4.40
2023-03-16T00:24:56.165Z,4.50
2023-03-16T00:27:24.262Z,4.15
2023-03-16T00:29:56.018Z,4.60
2023-03-16T00:32:27.230Z,4.63
2023-03-16T00:34:54.397Z,4.32
2023-03-16T00:37:23.496Z,4.47
2023-03-16T00:39:51.302Z,4.40
2023-03-16T00:42:19.187Z,4.63
2023-03-16T00:44:46.037Z,3.97
2023-03-16T00:47:16.060Z,5.03
2023-03-16T00:49:44.104Z,4.38
2023-03-16T00:52:15.571Z,4.55
2023-03-16T00:54:43.724Z,4.68
2023-03-16T00:57:12.138Z,4.38
2023-03-16T01:02:06.806Z,4.53
2023-03-16T01:04:34.258Z,4.30
2023-03-16T01:07:00.803Z,4.30
2023-03-16T01:09:27.450Z,4.15
2023-03-16T01:11:54.646Z,4.57
2023-03-16T01:14:22.173Z,4.15
2023-03-16T01:16:48.935Z,4.05
2023-03-16T01:19:15.749Z,4.35
2023-03-16T01:21:42.840Z,3.78
2023-03-16T01:24:09.972Z,4.63
2023-03-16T01:26:36.626Z,4.45
2023-03-16T01:29:03.222Z,4.72
2023-03-16T01:31:29.820Z,4.32
2023-03-16T01:33:56.402Z,4.35
2023-03-16T01:36:22.974Z,4.03
2023-03-16T01:38:49.811Z,4.07
2023-03-16T01:41:16.625Z,4.68
2023-03-16T01:43:43.648Z,4.03
2023-03-16T01:46:22.650Z,4.35
2023-03-16T01:49:12.458Z,4.10
2023-03-16T01:51:47.780Z,4.10
2023-03-16T01:54:18.070Z,4.10
2023-03-16T01:57:01.221Z,3.83
2023-03-16T01:59:43.492Z,3.95
2023-03-16T02:02:11.790Z,3.78
2023-03-16T02:07:10.159Z,3.75
2023-03-16T02:09:39.463Z,4.05
2023-03-16T02:12:06.999Z,4.68
2023-03-16T02:14:33.556Z,3.80
2023-03-16T02:17:00.142Z,4.20
2023-03-16T02:19:46.014Z,4.10
2023-03-16T02:22:14.092Z,3.83
2023-03-16T02:24:41.440Z,4.20
2023-03-16T02:27:14.363Z,4.15
2023-03-16T02:29:54.914Z,3.97
2023-03-16T02:32:23.663Z,3.70
2023-03-16T02:34:50.473Z,3.35
2023-03-16T02:37:17.088Z,3.65
2023-03-16T02:39:46.579Z,3.85
2023-03-16T02:42:16.076Z,3.88
2023-03-16T02:44:43.845Z,3.10
2023-03-16T02:47:23.374Z,3.80
2023-03-16T02:49:50.086Z,4.35
2023-03-16T02:52:16.658Z,3.85
2023-03-16T02:54:43.542Z,3.10
2023-03-16T02:57:10.153Z,3.47
2023-03-16T02:59:36.716Z,4.05
2023-03-16T03:02:03.452Z,3.50
2023-03-16T03:04:30.101Z,3.85
2023-03-16T03:07:01.841Z,3.53
2023-03-16T03:09:28.521Z,4.28
2023-03-16T03:11:55.147Z,3.40
2023-03-16T03:14:21.688Z,3.75
2023-03-16T03:16:48.235Z,3.85
2023-03-16T03:19:14.782Z,3.08
2023-03-16T03:21:41.407Z,3.80
2023-03-16T03:24:08.760Z,3.60
2023-03-16T03:26:35.527Z,3.60
2023-03-16T03:29:02.482Z,3.55
2023-03-16T03:31:29.123Z,3.53
2023-03-16T03:33:55.732Z,3.70
2023-03-16T03:36:22.327Z,3.88
2023-03-16T03:38:49.777Z,4.95
2023-03-16T03:41:16.330Z,3.57
2023-03-16T03:43:44.391Z,4.70
2023-03-16T03:46:11.076Z,3.72
2023-03-16T03:48:37.731Z,3.92
2023-03-16T03:51:05.576Z,4.47
2023-03-16T03:53:32.537Z,3.40
2023-03-16T03:55:59.132Z,3.47
2023-03-16T03:58:25.699Z,3.67
2023-03-16T04:00:52.555Z,3.50
2023-03-16T04:03:19.321Z,3.50
2023-03-16T04:05:45.979Z,3.50
2023-03-16T04:08:12.686Z,3.55
2023-03-16T04:10:39.334Z,3.47
2023-03-16T04:13:05.929Z,3.60
2023-03-16T04:15:34.092Z,3.33
2023-03-16T04:18:00.688Z,4.47
2023-03-16T04:20:27.625Z,3.63
2023-03-16T04:22:58.545Z,3.63
2023-03-16T04:25:26.820Z,3.00
2023-03-16T04:30:20.424Z,3.53
2023-03-16T04:32:47.058Z,3.72
2023-03-16T04:35:15.559Z,3.60
2023-03-16T04:37:42.106Z,3.70
2023-03-16T04:40:15.710Z,3.70
2023-03-16T04:42:43.789Z,3.20
2023-03-16T04:45:10.629Z,3.08
2023-03-16T04:47:37.815Z,3.30
2023-03-16T04:50:05.909Z,3.63
2023-03-16T04:52:32.587Z,3.55
2023-03-16T04:54:59.334Z,3.67
2023-03-16T04:57:25.887Z,3.60
2023-03-16T04:59:52.518Z,3.83
2023-03-16T05:02:20.102Z,3.72
2023-03-16T05:04:48.385Z,3.45
2023-03-16T05:07:14.965Z,4.03
2023-03-16T05:09:41.942Z,4.18
2023-03-16T05:12:09.066Z,3.50
2023-03-16T05:14:36.159Z,3.80
2023-03-16T05:17:06.168Z,4.32
2023-03-16T05:19:32.807Z,3.65
2023-03-16T05:21:59.503Z,3.58
2023-03-16T05:24:26.111Z,3.45
2023-03-16T05:26:52.713Z,3.97
2023-03-16T05:29:19.340Z,3.35
2023-03-16T05:31:47.743Z,4.28
2023-03-16T05:36:40.920Z,3.35
2023-03-16T05:39:08.696Z,3.35
2023-03-16T05:41:35.481Z,3.30
2023-03-16T05:44:02.350Z,3.60
2023-03-16T05:46:28.980Z,4.10
2023-03-16T05:48:55.585Z,3.80
2023-03-16T05:51:22.215Z,3.90
2023-03-16T05:53:49.357Z,3.60
2023-03-16T05:56:15.926Z,3.72
2023-03-16T05:58:42.507Z,3.60
2023-03-16T06:01:10.096Z,4.63
2023-03-16T06:03:36.797Z,3.60
2023-03-16T06:06:04.439Z,4.00
2023-03-16T06:08:31.025Z,4.28
2023-03-16T06:10:57.604Z,3.63
2023-03-16T06:13:24.165Z,4.53
2023-03-16T06:15:50.771Z,3.67
2023-03-16T06:18:17.350Z,3.28
2023-03-16T06:20:43.974Z,4.28
2023-03-16T06:23:10.504Z,2.90
2023-03-16T06:25:39.497Z,3.15
2023-03-16T06:28:07.885Z,2.95
2023-03-16T06:30:34.462Z,3.38
2023-03-16T06:33:02.182Z,3.65
2023-03-16T06:35:28.823Z,3.60
2023-03-16T06:37:55.368Z,3.85
2023-03-16T06:40:22.059Z,3.28
2023-03-16T06:42:48.653Z,3.40
2023-03-16T06:45:16.692Z,3.47
2023-03-16T06:47:44.347Z,3.60
2023-03-16T06:50:12.006Z,3.53
2023-03-16T06:52:38.761Z,3.30
2023-03-16T06:55:06.103Z,3.50
2023-03-16T06:57:32.662Z,3.30
2023-03-16T06:59:59.241Z,3.33
2023-03-16T07:02:25.847Z,4.10
2023-03-16T07:04:52.435Z,4.15
2023-03-16T07:07:19.375Z,3.97
2023-03-16T07:09:46.185Z,3.45
2023-03-16T07:12:13.798Z,3.67
2023-03-16T07:14:40.507Z,3.53
2023-03-16T07:17:07.168Z,3.40
2023-03-16T07:19:33.738Z,3.65
2023-03-16T07:22:00.307Z,3.45
2023-03-16T07:24:26.878Z,3.35
2023-03-16T07:26:53.480Z,3.50
2023-03-16T07:29:20.138Z,4.15
2023-03-16T07:31:48.018Z,3.70
2023-03-16T07:34:14.612Z,3.95
2023-03-16T07:36:41.151Z,4.03
2023-03-16T07:39:07.712Z,3.50
2023-03-16T07:41:34.306Z,3.30
2023-03-16T07:44:00.895Z,3.47
2023-03-16T07:46:27.479Z,3.50
2023-03-16T07:48:54.061Z,4.10
2023-03-16T07:51:21.418Z,3.70
2023-03-16T07:53:48.050Z,3.45
2023-03-16T07:56:14.630Z,3.30
2023-03-16T07:58:41.951Z,3.38
2023-03-16T08:01:10.912Z,3.55
2023-03-16T08:03:37.906Z,3.45
2023-03-16T08:06:07.716Z,2.90
2023-03-16T08:08:34.268Z,2.67
2023-03-16T08:11:00.968Z,3.72
2023-03-16T08:13:27.517Z,3.45
2023-03-16T08:15:58.600Z,4.60
2023-03-16T08:18:26.680Z,13.30
2023-03-16T08:20:53.784Z,14.35
2023-03-16T08:23:21.266Z,5.88
2023-03-16T08:25:48.206Z,4.97
2023-03-16T08:28:15.853Z,20.35
2023-03-16T08:30:51.039Z,6.82
2023-03-16T08:33:21.864Z,3.58
2023-03-16T08:35:49.764Z,2.63
2023-03-16T08:38:16.352Z,2.35
2023-03-16T08:40:48.431Z,3.38
2023-03-16T08:43:17.089Z,4.95
2023-03-16T08:45:47.463Z,3.30
2023-03-16T08:48:14.909Z,2.78
2023-03-16T08:50:43.335Z,2.63
2023-03-16T08:53:12.151Z,2.08
2023-03-16T08:55:40.766Z,2.25
2023-03-16T08:58:08.650Z,1.90
2023-03-16T09:00:35.563Z,3.20
2023-03-16T09:03:03.738Z,4.97
2023-03-16T09:05:31.198Z,1.83
2023-03-16T09:07:58.104Z,2.20
2023-03-16T09:10:25.823Z,1.63
2023-03-16T09:12:53.547Z,1.70
2023-03-16T09:15:21.203Z,1.83
2023-03-16T09:17:48.531Z,1.60
2023-03-16T09:20:26.869Z,1.50
2023-03-16T09:22:56.964Z,2.40
2023-03-16T09:25:25.450Z,2.10
2023-03-16T09:30:19.902Z,1.52
2023-03-16T09:32:48.874Z,1.67
2023-03-16T09:35:15.737Z,1.65
2023-03-16T09:37:45.414Z,1.80
2023-03-16T09:40:26.952Z,1.90
2023-03-16T09:43:07.231Z,1.63
2023-03-16T09:46:01.493Z,1.58
2023-03-16T09:48:29.662Z,1.98
2023-03-16T09:50:56.913Z,2.28
2023-03-16T09:53:34.323Z,1.75
2023-03-16T09:56:04.753Z,2.00
2023-03-16T09:58:34.484Z,1.98
2023-03-16T10:01:13.354Z,2.22
2023-03-16T10:04:21.968Z,2.22
2023-03-16T10:07:00.970Z,2.35
2023-03-16T10:09:31.973Z,1.90
2023-03-16T10:12:00.730Z,1.90
2023-03-16T10:14:39.435Z,2.30
2023-03-16T10:17:37.376Z,1.67
2023-03-16T10:20:09.102Z,1.70
2023-03-16T10:22:38.584Z,2.10
2023-03-16T10:25:15.899Z,2.00
2023-03-16T10:27:45.159Z,2.53
2023-03-16T10:30:28.579Z,2.25
2023-03-16T10:32:57.767Z,1.98
2023-03-16T10:35:51.595Z,2.20
2023-03-16T10:38:38.674Z,1.98
2023-03-16T10:41:20.587Z,2.03
2023-03-16T10:43:55.653Z,2.17
2023-03-16T10:46:23.314Z,7.72
2023-03-16T10:48:59.352Z,2.20
2023-03-16T10:51:29.574Z,2.25
2023-03-16T10:54:01.114Z,2.05
2023-03-16T10:56:34.030Z,1.67
2023-03-16T10:59:00.986Z,2.70
2023-03-16T11:01:29.166Z,2.20
2023-03-16T11:03:57.433Z,1.98
2023-03-16T11:06:30.617Z,2.00
2023-03-16T11:09:08.795Z,2.00
2023-03-16T11:11:36.576Z,1.98
2023-03-16T11:14:10.389Z,2.25
2023-03-16T11:16:41.627Z,2.20
2023-03-16T11:19:17.317Z,2.50
2023-03-16T11:22:02.852Z,1.83
2023-03-16T11:24:39.834Z,2.17
2023-03-16T11:27:13.112Z,2.15
2023-03-16T11:29:59.785Z,2.90
2023-03-16T11:32:30.732Z,2.38
2023-03-16T11:34:57.289Z,2.20
2023-03-16T11:37:32.616Z,2.13
2023-03-16T11:40:15.421Z,2.22
2023-03-16T11:42:49.898Z,2.50
2023-03-16T11:45:24.506Z,1.98
2023-03-16T11:47:57.172Z,2.03
2023-03-16T11:50:27.160Z,2.08
2023-03-16T11:53:07.129Z,2.20
2023-03-16T11:55:49.691Z,1.98
2023-03-16T11:58:53.681Z,2.30
2023-03-16T12:01:31.308Z,1.70
2023-03-16T12:04:27.355Z,2.72
2023-03-16T12:07:04.862Z,2.10
2023-03-16T12:09:51.509Z,2.15
2023-03-16T12:12:37.974Z,1.90
2023-03-16T12:15:20.150Z,1.60
2023-03-16T12:17:48.443Z,2.08
2023-03-16T12:20:39.488Z,1.90
2023-03-16T12:23:10.846Z,2.08
2023-03-16T12:25:39.590Z,1.92
2023-03-16T12:28:18.910Z,1.63
2023-03-16T12:31:03.758Z,1.83
2023-03-16T12:33:39.652Z,1.90
2023-03-16T12:36:24.989Z,1.88
2023-03-16T12:39:01.163Z,1.70
2023-03-16T12:41:37.281Z,1.80
2023-03-16T12:44:12.708Z,2.13
2023-03-16T12:46:53.438Z,2.25
2023-03-16T12:49:21.521Z,2.13
2023-03-16T12:51:59.616Z,2.03
2023-03-16T12:54:27.575Z,2.00
2023-03-16T12:57:05.100Z,1.92
2023-03-16T12:59:42.951Z,2.07
2023-03-16T13:02:33.014Z,1.90
2023-03-16T13:05:10.310Z,1.83
2023-03-16T13:07:38.951Z,2.13
2023-03-16T13:10:12.529Z,2.00
2023-03-16T13:12:41.749Z,1.70
2023-03-16T13:15:13.129Z,2.03
2023-03-16T13:17:39.769Z,1.95
2023-03-16T13:20:31.351Z,2.35
2023-03-16T13:23:21.020Z,1.88
2023-03-16T13:26:11.094Z,2.13
2023-03-16T13:28:38.941Z,1.83
2023-03-16T13:31:42.969Z,2.00
2023-03-16T13:34:14.949Z,2.00
2023-03-16T13:36:42.138Z,1.77
2023-03-16T13:39:18.881Z,2.08
2023-03-16T13:41:57.320Z,1.50
2023-03-16T13:46:51.024Z,1.35
2023-03-16T13:49:18.414Z,1.58
2023-03-16T13:51:46.934Z,1.58
2023-03-16T13:56:44.728Z,1.40
2023-03-16T13:59:11.757Z,2.05
2023-03-16T14:01:38.449Z,1.77
2023-03-16T14:04:13.512Z,1.70
2023-03-16T14:06:41.452Z,1.83
2023-03-16T14:09:15.698Z,1.75
2023-03-16T14:11:44.626Z,1.60
2023-03-16T14:14:23.948Z,1.90
2023-03-16T14:16:51.262Z,1.65
2023-03-16T14:19:24.574Z,2.00
2023-03-16T14:21:51.891Z,2.00
2023-03-16T14:24:33.850Z,1.70
2023-03-16T14:27:21.859Z,1.80
2023-03-16T14:29:59.871Z,1.55
2023-03-16T14:32:32.356Z,1.70
2023-03-16T14:35:21.225Z,1.85
2023-03-16T14:37:51.909Z,1.48
2023-03-16T14:40:24.376Z,1.60
2023-03-16T14:42:52.509Z,1.50
2023-03-16T14:45:20.376Z,1.67
2023-03-16T14:47:49.038Z,1.77
2023-03-16T14:50:18.911Z,1.70
2023-03-16T14:52:45.939Z,1.40
2023-03-16T14:55:17.841Z,1.50
2023-03-16T14:57:47.334Z,1.48
2023-03-16T15:00:15.569Z,1.33
2023-03-16T15:02:44.731Z,1.67
2023-03-16T15:05:21.171Z,1.40
2023-03-16T15:07:53.663Z,1.50
2023-03-16T15:10:26.858Z,1.23
2023-03-16T15:13:04.384Z,1.60
2023-03-16T15:15:31.685Z,2.30
2023-03-16T15:17:59.225Z,1.45
2023-03-16T15:20:31.682Z,1.38
2023-03-16T15:22:58.675Z,1.30
2023-03-16T15:25:37.268Z,1.30
2023-03-16T15:28:18.877Z,1.58
2023-03-16T15:30:50.218Z,1.17
2023-03-16T15:33:17.268Z,1.30
2023-03-16T15:35:44.785Z,1.20
2023-03-16T15:38:14.776Z,1.25
2023-03-16T15:40:42.571Z,1.25
2023-03-16T15:43:13.208Z,1.20
2023-03-16T15:45:39.821Z,1.10
2023-03-16T15:48:07.543Z,1.30
2023-03-16T15:50:34.985Z,1.30
2023-03-16T15:53:20.501Z,1.30
2023-03-16T15:56:05.588Z,1.30
2023-03-16T15:58:34.377Z,1.58
2023-03-16T16:01:02.860Z,1.50
2023-03-16T16:05:55.963Z,1.30
2023-03-16T16:08:22.900Z,1.73
2023-03-16T16:10:50.636Z,1.50
2023-03-16T16:13:26.709Z,1.20
2023-03-16T16:15:57.377Z,1.30
2023-03-16T16:18:35.058Z,1.40
2023-03-16T16:21:03.702Z,1.60
2023-03-16T16:23:32.398Z,1.25
2023-03-16T16:26:02.069Z,1.40
2023-03-16T16:28:31.428Z,1.40
2023-03-16T16:30:58.910Z,1.67
2023-03-16T16:33:30.449Z,1.40
2023-03-16T16:35:59.906Z,1.20
2023-03-16T16:38:26.866Z,1.20
2023-03-16T16:40:54.946Z,1.13
2023-03-16T16:43:31.381Z,1.63
2023-03-16T16:45:59.968Z,1.70
2023-03-16T16:48:38.278Z,1.35
2023-03-16T16:51:09.140Z,1.20
2023-03-16T16:53:35.921Z,1.20
2023-03-16T16:56:03.032Z,1.38
2023-03-16T16:58:29.662Z,1.23
2023-03-16T17:00:57.927Z,1.40
2023-03-16T17:03:27.443Z,1.30
2023-03-16T17:05:56.777Z,1.33
2023-03-16T17:08:24.576Z,1.40
2023-03-16T17:10:52.197Z,1.20
2023-03-16T17:13:46.933Z,1.07
2023-03-16T17:16:18.055Z,1.73
2023-03-16T17:18:45.294Z,1.20
2023-03-16T17:21:19.729Z,1.25
2023-03-16T17:23:47.977Z,1.50
2023-03-16T17:26:17.786Z,1.50
2023-03-16T17:29:04.050Z,1.40
2023-03-16T17:31:36.669Z,1.30
2023-03-16T17:34:09.437Z,1.20
2023-03-16T17:36:36.163Z,1.20
2023-03-16T17:39:03.297Z,1.20
2023-03-16T17:41:33.104Z,1.45
2023-03-16T17:44:02.905Z,1.25
2023-03-16T17:46:30.842Z,1.50
2023-03-16T17:48:57.464Z,1.23
2023-03-16T17:51:25.997Z,1.38
2023-03-16T17:56:25.398Z,1.50
2023-03-16T17:58:59.746Z,1.52
2023-03-16T18:01:29.992Z,1.48
2023-03-16T18:03:57.147Z,1.20
2023-03-16T18:06:26.163Z,1.30
2023-03-16T18:08:53.106Z,1.80
2023-03-16T18:11:21.637Z,1.52
2023-03-16T18:16:23.257Z,1.75
2023-03-16T18:18:50.086Z,1.50
2023-03-16T18:21:23.173Z,1.65
2023-03-16T18:23:50.591Z,1.33
2023-03-16T18:26:18.987Z,1.52
2023-03-16T18:28:46.113Z,1.55
2023-03-16T18:31:26.377Z,1.30
2023-03-16T18:33:59.566Z,1.85
2023-03-16T18:36:35.265Z,1.55
2023-03-16T18:39:05.740Z,2.67
2023-03-16T18:41:34.619Z,2.13
2023-03-16T18:44:06.068Z,2.38
2023-03-16T18:46:35.533Z,2.20
2023-03-16T18:49:16.382Z,1.60
2023-03-16T18:51:43.569Z,2.00
2023-03-16T18:54:21.008Z,1.98
2023-03-16T18:56:47.848Z,1.83
2023-03-16T18:59:14.519Z,1.80
2023-03-16T19:01:42.682Z,2.10
2023-03-16T19:04:19.788Z,2.88
2023-03-16T19:06:46.511Z,1.80
